メインページ
METAR-TAF:

METAR-TAF

空港 :

Morrisville-Stowe State Airport

Morrisville, バーモント州, アメリカ合衆国

緯度: 44-32-10N, 経度: 072-36-58W, 海抜: 223m

現時点の気象観測

当レポートは13分前の00:54(UTC)に作成
南/南西の風 3kt
気温 13°C
湿度 94%
気圧 1027 hPa
視程: 16.1km
晴天

METAR: KMVL 250054Z AUTO 20003KT 10SM CLR 13/12 A3032 RMK AO2 SLP269 T01330122

時間: 21:07 (01:07 UTC)


TAF: 見つかりません

4,000以上の空港の気象観測と天気予報(METAR報とTAF報)

利用可能な観測所は地図上に黄色い丸と赤い丸で示す。

丸の上にカーソルを重ねると観測所名を参照できる。

次にクリックすると気象観測と天気予報を参照できる。

マップの切り替え:黒色「×」印の緑ボタンをクリックして拡大、「-」印の緑ボタンをクリックして縮小、緑色の三角印をクリックして隣りの地図に切り替え


METAR-TAF: